createdAt,value
2018-09-08T17:29:38.868Z,196.00
2018-09-08T17:30:38.786Z,188.00
2018-09-08T17:32:33.733Z,172.00
2018-09-08T17:33:33.153Z,156.00
2018-09-08T17:35:27.595Z,132.00
2018-09-08T17:36:27.530Z,124.00
2018-09-08T17:38:21.920Z,100.00
2018-09-08T17:39:21.896Z,92.00
2018-09-08T17:41:16.352Z,68.00
2018-09-08T17:42:16.263Z,64.00
2018-09-08T17:44:10.650Z,48.00
2018-09-08T17:45:10.655Z,44.00
2018-09-08T17:47:05.248Z,36.00
2018-09-08T17:48:05.019Z,32.00
2018-09-08T17:49:59.393Z,24.00
2018-09-08T17:50:59.390Z,20.00
2018-09-08T17:52:53.780Z,20.00
2018-09-08T17:53:53.780Z,16.00
2018-09-08T17:55:48.147Z,12.00
2018-09-08T17:56:48.147Z,12.00
2018-09-08T17:58:42.574Z,8.00
2018-09-08T17:59:42.528Z,8.00
2018-09-08T18:01:36.909Z,8.00
2018-09-08T18:02:36.903Z,8.00
2018-09-08T18:04:31.394Z,8.00
2018-09-08T18:05:31.280Z,12.00
2018-09-08T18:07:25.658Z,8.00
2018-09-08T18:08:25.657Z,8.00
2018-09-08T18:10:20.036Z,4.00
2018-09-08T18:11:20.033Z,4.00
2018-09-08T18:13:14.414Z,8.00
2018-09-08T18:14:14.429Z,8.00
2018-09-08T18:16:08.780Z,8.00
2018-09-08T18:17:08.811Z,8.00
2018-09-08T18:19:03.151Z,8.00
2018-09-08T18:20:03.149Z,8.00
2018-09-08T18:21:57.734Z,8.00
2018-09-08T18:22:57.597Z,8.00
2018-09-08T18:24:51.921Z,8.00
2018-09-08T18:25:51.919Z,8.00
2018-09-08T18:27:46.313Z,8.00
2018-09-08T18:28:46.311Z,8.00
2018-09-08T18:30:40.689Z,8.00
2018-09-08T18:31:40.687Z,4.00
2018-09-08T18:33:35.071Z,4.00
2018-09-08T18:34:35.067Z,4.00
2018-09-08T18:36:29.444Z,4.00
2018-09-08T18:37:29.442Z,4.00
2018-09-08T18:39:23.964Z,4.00
2018-09-08T18:40:23.823Z,4.00
2018-09-08T18:42:18.184Z,4.00
2018-09-08T18:43:18.262Z,4.00
2018-09-08T18:45:12.571Z,4.00
2018-09-08T18:46:12.558Z,4.00
2018-09-08T18:48:07.001Z,4.00
2018-09-08T18:49:06.956Z,4.00
2018-09-08T18:51:01.338Z,4.00
2018-09-08T18:52:01.336Z,4.00
2018-09-08T18:53:55.725Z,4.00
2018-09-08T18:54:55.717Z,4.00
2018-09-08T18:56:50.226Z,4.00
2018-09-08T18:57:50.091Z,4.00
2018-09-08T18:59:43.496Z,4.00
2018-09-08T19:00:43.479Z,4.00
2018-09-08T19:02:37.864Z,4.00
2018-09-08T19:03:37.863Z,4.00
2018-09-08T19:05:32.241Z,4.00
2018-09-08T19:06:32.244Z,4.00
2018-09-08T19:08:26.626Z,4.00
2018-09-08T19:09:26.621Z,4.00
2018-09-08T19:11:21.010Z,4.00
2018-09-08T19:12:21.008Z,4.00
2018-09-08T19:14:15.521Z,4.00
2018-09-08T19:15:15.389Z,4.00
2018-09-08T19:17:09.840Z,4.00
2018-09-08T19:18:09.758Z,4.00
2018-09-08T19:20:04.173Z,4.00
2018-09-08T19:21:04.140Z,4.00
2018-09-08T19:22:58.514Z,4.00
2018-09-08T19:23:58.511Z,4.00
2018-09-08T19:25:52.915Z,4.00
2018-09-08T19:26:52.877Z,8.00
2018-09-08T19:28:47.240Z,4.00
2018-09-08T19:29:47.240Z,4.00
2018-09-08T19:31:41.985Z,8.00
2018-09-08T19:32:41.621Z,4.00
2018-09-08T19:34:36.022Z,4.00
2018-09-08T19:35:35.995Z,4.00
2018-09-08T19:37:31.527Z,4.00
2018-09-08T19:38:31.235Z,8.00
2018-09-08T19:40:25.696Z,4.00
2018-09-08T19:41:25.677Z,4.00
2018-09-08T19:43:21.129Z,4.00
2018-09-08T19:44:20.937Z,4.00
2018-09-08T19:46:15.310Z,4.00
2018-09-08T19:47:15.314Z,4.00
2018-09-08T19:49:09.827Z,4.00
2018-09-08T19:50:09.713Z,4.00
2018-09-08T19:52:04.129Z,4.00
2018-09-08T19:53:04.199Z,4.00
2018-09-08T19:54:58.523Z,4.00
2018-09-08T19:55:58.502Z,4.00
2018-09-08T19:57:52.880Z,4.00
2018-09-08T19:58:52.877Z,4.00
2018-09-08T20:00:47.251Z,4.00
2018-09-08T20:01:47.256Z,4.00
2018-09-08T20:03:45.757Z,4.00
2018-09-08T20:04:45.755Z,4.00
2018-09-08T20:06:40.272Z,4.00
2018-09-08T20:07:40.134Z,4.00
2018-09-08T20:09:36.542Z,4.00
2018-09-08T20:10:36.496Z,4.00
2018-09-08T20:11:36.498Z,4.00
2018-09-08T20:12:36.505Z,4.00
2018-09-08T20:13:36.552Z,4.00
2018-09-08T20:14:36.495Z,4.00
2018-09-08T20:15:36.501Z,4.00
2018-09-08T20:16:36.502Z,4.00
2018-09-08T20:17:36.501Z,4.00
2018-09-08T20:18:36.496Z,4.00
2018-09-08T20:19:36.596Z,8.00
2018-09-08T20:20:36.498Z,4.00
2018-09-08T20:21:36.501Z,4.00
2018-09-08T20:22:36.497Z,4.00
2018-09-08T20:23:36.504Z,4.00
2018-09-08T20:24:36.507Z,4.00
2018-09-08T20:25:36.497Z,4.00
2018-09-08T20:26:36.561Z,4.00
2018-09-08T20:27:36.496Z,4.00
2018-09-08T20:28:36.497Z,4.00
2018-09-08T20:29:36.497Z,4.00
2018-09-08T20:30:36.495Z,4.00
2018-09-08T20:31:36.497Z,4.00
2018-09-08T20:32:36.497Z,4.00
2018-09-08T20:33:36.494Z,4.00
2018-09-08T20:34:36.498Z,4.00
2018-09-08T20:35:36.495Z,4.00
2018-09-08T20:36:36.495Z,4.00
2018-09-08T20:37:36.497Z,4.00
2018-09-08T20:38:36.497Z,4.00
2018-09-08T20:39:36.494Z,4.00
2018-09-08T20:40:36.507Z,4.00
2018-09-08T20:41:36.507Z,4.00
2018-09-08T20:42:36.582Z,4.00
2018-09-08T20:43:36.494Z,4.00
2018-09-08T20:44:36.494Z,4.00
2018-09-08T20:45:36.494Z,4.00
2018-09-08T20:46:36.496Z,4.00
2018-09-08T20:47:36.502Z,4.00
2018-09-08T20:48:36.519Z,4.00
2018-09-08T20:49:36.492Z,4.00
2018-09-08T20:50:36.495Z,4.00
2018-09-08T20:51:36.516Z,4.00
2018-09-08T20:52:36.496Z,4.00
2018-09-08T20:53:36.492Z,4.00
2018-09-08T20:54:36.490Z,4.00
2018-09-08T20:55:36.520Z,4.00
2018-09-08T20:56:36.493Z,4.00
2018-09-08T20:57:36.494Z,8.00
2018-09-08T20:58:36.507Z,4.00
2018-09-08T20:59:36.491Z,4.00
2018-09-08T21:00:36.494Z,4.00
2018-09-08T21:01:36.491Z,4.00
2018-09-08T21:02:36.555Z,4.00
2018-09-08T21:03:36.489Z,4.00
2018-09-08T21:04:36.493Z,4.00
2018-09-08T21:05:36.488Z,4.00
2018-09-08T21:06:36.487Z,4.00
2018-09-08T21:07:36.536Z,4.00
2018-09-08T21:08:36.490Z,4.00
2018-09-08T21:09:36.489Z,4.00
2018-09-08T21:10:36.488Z,4.00
2018-09-08T21:11:36.487Z,8.00
2018-09-08T21:12:36.486Z,4.00
2018-09-08T21:13:36.508Z,4.00
2018-09-08T21:14:36.487Z,4.00
2018-09-08T21:15:36.488Z,4.00
2018-09-08T21:16:36.487Z,4.00
2018-09-08T21:17:36.482Z,4.00
2018-09-08T21:18:36.497Z,4.00
2018-09-08T21:19:36.538Z,4.00
2018-09-08T21:20:36.481Z,4.00
2018-09-08T21:21:36.490Z,4.00
2018-09-08T21:22:36.492Z,4.00
2018-09-08T21:23:36.483Z,4.00
2018-09-08T21:24:36.493Z,4.00
2018-09-08T21:25:36.480Z,4.00
2018-09-08T21:26:36.481Z,4.00
2018-09-08T21:27:36.532Z,4.00
2018-09-08T21:28:36.507Z,4.00
2018-09-08T21:29:36.483Z,4.00
2018-09-08T21:30:36.489Z,4.00
2018-09-08T21:31:36.502Z,8.00
2018-09-08T21:32:36.479Z,4.00
2018-09-08T21:33:36.482Z,4.00
2018-09-08T21:34:36.476Z,4.00
2018-09-08T21:35:36.476Z,4.00
2018-09-08T21:36:36.474Z,4.00
2018-09-08T21:37:36.473Z,4.00
2018-09-08T21:38:36.472Z,4.00
2018-09-08T21:39:36.473Z,4.00
2018-09-08T21:40:36.472Z,4.00
2018-09-08T21:41:36.480Z,4.00
2018-09-08T21:42:36.470Z,4.00
2018-09-08T21:43:36.472Z,4.00
2018-09-08T21:44:36.468Z,4.00
2018-09-08T21:45:36.477Z,4.00
2018-09-08T21:46:36.468Z,4.00
2018-09-08T21:47:36.469Z,4.00
2018-09-08T21:48:36.465Z,4.00
2018-09-08T21:49:36.466Z,4.00
2018-09-08T21:50:36.467Z,4.00
2018-09-08T21:51:36.466Z,4.00
2018-09-08T21:52:36.466Z,4.00
2018-09-08T21:53:36.461Z,4.00
2018-09-08T21:54:36.460Z,4.00
2018-09-08T21:55:36.464Z,4.00
2018-09-08T21:56:36.463Z,4.00
2018-09-08T21:57:36.458Z,4.00
2018-09-08T21:58:36.460Z,4.00
2018-09-08T21:59:36.457Z,4.00
2018-09-08T22:00:36.455Z,4.00
2018-09-08T22:01:36.457Z,4.00
2018-09-08T22:02:36.461Z,4.00
2018-09-08T22:03:36.460Z,4.00
2018-09-08T22:04:36.464Z,4.00
2018-09-08T22:05:36.451Z,4.00
2018-09-08T22:06:36.449Z,4.00
2018-09-08T22:07:36.449Z,4.00
2018-09-08T22:08:36.451Z,4.00
2018-09-08T22:09:36.450Z,4.00
2018-09-08T22:10:36.448Z,4.00
2018-09-08T22:11:36.466Z,4.00
2018-09-08T22:12:36.444Z,4.00
2018-09-08T22:13:36.443Z,4.00
2018-09-08T22:14:36.443Z,4.00
2018-09-08T22:15:36.446Z,4.00
2018-09-08T22:16:36.442Z,4.00
2018-09-08T22:17:36.440Z,4.00
2018-09-08T22:18:36.439Z,4.00
2018-09-08T22:19:36.440Z,4.00
2018-09-08T22:20:36.451Z,4.00
2018-09-08T22:21:36.435Z,4.00
2018-09-08T22:22:36.435Z,8.00
2018-09-08T22:23:36.436Z,4.00
2018-09-08T22:24:36.433Z,4.00
2018-09-08T22:25:36.431Z,4.00
2018-09-08T22:26:36.430Z,4.00
2018-09-08T22:27:39.457Z,4.00
2018-09-08T22:28:36.550Z,4.00
2018-09-08T22:29:37.045Z,4.00
2018-09-08T22:30:36.509Z,4.00
2018-09-08T22:31:36.436Z,4.00
2018-09-08T22:32:36.428Z,4.00
2018-09-08T22:33:36.440Z,4.00
2018-09-08T22:34:36.430Z,4.00
2018-09-08T22:35:36.424Z,4.00
2018-09-08T22:36:36.439Z,4.00
2018-09-08T22:37:36.423Z,4.00
2018-09-08T22:38:36.421Z,4.00
2018-09-08T22:39:36.418Z,4.00
2018-09-08T22:40:36.422Z,4.00
2018-09-08T22:41:36.419Z,4.00
2018-09-08T22:42:36.418Z,4.00
2018-09-08T22:43:36.414Z,4.00
2018-09-08T22:44:36.412Z,4.00
2018-09-08T22:45:36.413Z,4.00
2018-09-08T22:46:36.413Z,4.00
2018-09-08T22:47:36.412Z,4.00
2018-09-08T22:48:36.410Z,4.00
2018-09-08T22:49:36.408Z,4.00
2018-09-08T22:50:36.410Z,4.00
2018-09-08T22:51:36.406Z,4.00
2018-09-08T22:52:36.408Z,4.00
2018-09-08T22:53:36.406Z,4.00
2018-09-08T22:54:36.403Z,4.00
2018-09-08T22:55:36.408Z,4.00
2018-09-08T22:56:36.403Z,4.00
2018-09-08T22:57:36.399Z,4.00
2018-09-08T22:58:36.400Z,4.00
2018-09-08T22:59:36.409Z,4.00
2018-09-08T23:00:36.397Z,4.00
2018-09-08T23:01:36.396Z,4.00
2018-09-08T23:02:36.394Z,4.00
2018-09-08T23:03:36.398Z,4.00
2018-09-08T23:04:36.396Z,4.00
2018-09-08T23:05:36.400Z,4.00
2018-09-08T23:06:36.391Z,4.00
2018-09-08T23:07:36.391Z,4.00
2018-09-08T23:08:36.387Z,4.00
2018-09-08T23:09:36.390Z,4.00
2018-09-08T23:10:36.405Z,4.00
2018-09-08T23:11:36.382Z,4.00
2018-09-08T23:12:36.490Z,4.00
2018-09-08T23:13:36.417Z,4.00
2018-09-08T23:14:36.383Z,4.00
2018-09-08T23:15:36.382Z,4.00
2018-09-08T23:16:36.392Z,4.00
2018-09-08T23:17:36.377Z,4.00
2018-09-08T23:18:36.376Z,4.00
2018-09-08T23:19:36.381Z,4.00
2018-09-08T23:20:36.375Z,4.00
2018-09-08T23:21:36.375Z,4.00
2018-09-08T23:22:36.370Z,4.00
2018-09-08T23:23:36.371Z,4.00
2018-09-08T23:24:36.378Z,4.00
2018-09-08T23:25:36.373Z,4.00
2018-09-08T23:26:36.365Z,4.00
2018-09-08T23:27:36.365Z,4.00
2018-09-08T23:28:36.364Z,4.00
2018-09-08T23:29:36.364Z,4.00
2018-09-08T23:30:36.367Z,4.00
2018-09-08T23:31:36.361Z,4.00
2018-09-08T23:32:36.361Z,4.00
2018-09-08T23:33:36.359Z,4.00
2018-09-08T23:34:36.365Z,4.00
2018-09-08T23:35:36.389Z,4.00
2018-09-08T23:36:36.357Z,4.00
2018-09-08T23:37:36.358Z,4.00
2018-09-08T23:38:36.354Z,4.00
2018-09-08T23:39:36.354Z,4.00
2018-09-08T23:40:36.352Z,4.00
2018-09-08T23:41:36.349Z,4.00
2018-09-08T23:42:36.357Z,4.00
2018-09-08T23:43:36.349Z,4.00
2018-09-08T23:44:36.353Z,4.00
2018-09-08T23:45:36.347Z,4.00
2018-09-08T23:46:36.346Z,4.00
2018-09-08T23:47:36.345Z,4.00
2018-09-08T23:48:36.344Z,4.00
2018-09-08T23:49:36.347Z,4.00
2018-09-08T23:50:36.408Z,4.00
2018-09-08T23:51:36.339Z,4.00
2018-09-08T23:52:36.404Z,4.00
2018-09-08T23:53:36.335Z,4.00
2018-09-08T23:54:36.342Z,4.00
2018-09-08T23:55:36.336Z,4.00
2018-09-08T23:56:36.335Z,4.00
2018-09-08T23:57:36.331Z,4.00
2018-09-08T23:58:36.342Z,4.00
2018-09-08T23:59:36.332Z,4.00
